Nearby METAR Reports

 

KSNK - Snyder/Winston, Texas, USA
Distance from station: SSE 25mi, 41km
Updated: Fri, 18-Jan-2019 10:15pm CST
Partly cloudy
Partly cloudy
 Wind from NNW
Wind: NNW 23 mph , 37 km/h, Gust: 30 mph , 48 km/h
Temperature: 43°F , 6°C
Wind Chill: 34°F , 1°C
Dew Point: 32°F , 0°C
Humidity: 66%
Barometer: 29.91 inHg , 1012.9 hPa
Clouds: Partly cloudy
Visibility: 10 miles , 16 km
Cloud details: Partly cloudy 4600 ft
2019/01/19 04:15 KSNK 190415Z AUTO 33020G26KT 10SM SCT046 06/00 A2991 RMK AO2 T00621003
KSWW - Sweetwater, Texas, USA
Distance from station: SE 56mi, 90km
Updated: Fri, 18-Jan-2019 10:15pm CST
Clear
Clear
 Wind from WNW
Wind: WNW 26 mph , 43 km/h, Gust: 32 mph , 52 km/h
Temperature: 46°F , 8°C
Wind Chill: 37°F , 3°C
Dew Point: 34°F , 1°C
Humidity: 62%
Barometer: 29.89 inHg , 1012.2 hPa
Clouds: Clear
Visibility: 10 miles , 16 km
2019/01/19 04:15 KSWW 190415Z AUTO 30023G28KT 10SM CLR 08/01 A2989 RMK AO2 T00820007
 
KLBB - Lubbock, Texas, USA
Distance from station: NW 59mi, 94km
Updated: Fri, 18-Jan-2019 10:00pm CST
Overcast
Overcast
 Wind from NNW
Wind: NNW 33 mph , 54 km/h, Gust: 47 mph , 76 km/h
Temperature: 37°F , 3°C
Wind Chill: 24°F , -4°C
Dew Point: 28°F , -2°C
Humidity: 70%
Barometer: 29.93 inHg , 1013.5 hPa
Clouds: Overcast
Visibility: 10 miles , 16 km
Cloud details: Mostly cloudy 2300 ft
Overcast 5500 ft
2019/01/19 04:00 KLBB 190400Z 34029G41KT 10SM BKN023 OVC055 03/M02 A2993 RMK AO2 PK WND 34041/0400 T00331017
KPVW - Plainview, Texas, USA
Distance from station: NNW 85mi, 137km
Updated: Fri, 18-Jan-2019 10:15pm CST
Overcast
Overcast
 Wind from N
Wind: N 28 mph , 44 km/h, Gust: 37 mph , 59 km/h
Temperature: 34°F , 1°C
Wind Chill: 21°F , -6°C
Dew Point: 27°F , -3°C
Humidity: 75%
Barometer: 29.95 inHg , 1014.2 hPa
Clouds: Overcast
Visibility: 10 miles , 16 km
Cloud details: Mostly cloudy 2100 ft
Mostly cloudy 2800 ft
Overcast 4000 ft
2019/01/19 04:15 KPVW 190415Z AUTO 35024G32KT 10SM BKN021 BKN028 OVC040 01/M03 A2995 RMK AO2 T00111031
 
KDYS - Dyess Afb/Abilen, Texas, USA
Distance from station: ESE 88mi, 141km
Updated: Fri, 18-Jan-2019 9:56pm CST
Few Clouds
Few Clouds
 Wind from W
Wind: W 22 mph , 35 km/h, Gust: 28 mph , 44 km/h
Temperature: 59°F , 15°C
Dew Point: 27°F , -3°C
Humidity: 29%
Barometer: 29.74 inHg , 1007.1 hPa
Clouds: Few Clouds
Visibility: 10 miles , 16 km
Cloud details: Few Clouds 18000 ft
2019/01/19 03:56 KDYS 190356Z 27019G24KT 10SM FEW180 15/M03 A2974 RMK AO2A SLP050 T01491030
KGNC - Seminole, Texas, USA
Distance from station: WSW 89mi, 144km
Updated: Fri, 18-Jan-2019 10:15pm CST
Clear
Clear
 Wind from NNW
Wind: NNW 22 mph , 35 km/h, Gust: 40 mph , 65 km/h
Temperature: 43°F , 6°C
Wind Chill: 34°F , 1°C
Dew Point: 34°F , 1°C
Humidity: 71%
Barometer: 30.05 inHg , 1017.6 hPa
Clouds: Clear
Visibility: 10 miles , 16 km
2019/01/19 04:15 KGNC 190415Z AUTO 33019G35KT 10SM CLR 06/01 A3005 RMK AO2 T00580011
 
KE11 - Andrews, Texas, USA
Distance from station: WSW 93mi, 149km
Updated: Fri, 18-Jan-2019 10:15pm CST
Partly cloudy
Partly cloudy
 Wind from NNW
Wind: NNW 23 mph , 37 km/h, Gust: 33 mph , 54 km/h
Temperature: 45°F , 7°C
Wind Chill: 36°F , 2°C
Dew Point: 34°F , 1°C
Humidity: 66%
Barometer: 30.02 inHg , 1016.6 hPa
Clouds: Partly cloudy
Visibility: 10 miles , 16 km
Cloud details: Partly cloudy 2800 ft
2019/01/19 04:15 KE11 190415Z AUTO 33020G29KT 10SM SCT028 07/01 A3002 RMK AO2 T00690009
KABI - Abilene, Texas, USA
Distance from station: ESE 96mi, 154km
Updated: Fri, 18-Jan-2019 9:52pm CST
Clear
Clear
 Wind from W
Wind: W 20 mph , 31 km/h, Gust: 26 mph , 43 km/h
Temperature: 61°F , 16°C
Dew Point: 28°F , -2°C
Humidity: 29%
Barometer: 29.73 inHg , 1006.8 hPa
Clouds: Clear
Visibility: 10 miles , 16 km
2019/01/19 03:52 KABI 190352Z 26017G23KT 10SM CLR 16/M02 A2973 RMK AO2 PK WND 25031/0255 SLP054 P0002 T01611022
 
KMAF - Midland, Texas, USA
Distance from station: SW 96mi, 154km
Updated: Fri, 18-Jan-2019 9:53pm CST
Clear
Clear
 Wind from NW
Wind: NW 25 mph , 41 km/h, Gust: 39 mph , 63 km/h
Temperature: 55°F , 13°C
Dew Point: 23°F , -5°C
Humidity: 28%
Barometer: 29.96 inHg , 1014.6 hPa
Clouds: Clear
Visibility: 10 miles , 16 km
2019/01/19 03:53 KMAF 190353Z 31022G34KT 10SM CLR 13/M05 A2996 RMK AO2 PK WND 31035/0318 SLP117 T01281050
KCDS - Childress, Texas, USA
Distance from station: NNE 110mi, 177km
Updated: Fri, 18-Jan-2019 9:53pm CST
Overcast
Overcast
 Wind from N
Wind: N 32 mph , 52 km/h, Gust: 40 mph , 65 km/h
Temperature: 41°F , 5°C
Wind Chill: 29°F , -2°C
Dew Point: 30°F , -1°C
Humidity: 66%
Barometer: 29.86 inHg , 1011.2 hPa
Clouds: Overcast
Visibility: 10 miles , 16 km
Cloud details: Overcast 2200 ft
2019/01/19 03:53 KCDS 190353Z AUTO 35028G35KT 10SM OVC022 05/M01 A2986 RMK AO2 PK WND 35039/0327 SLP110 T00501006
 
KSJT - San Angelo, Texas, USA
Distance from station: SSE 121mi, 194km
Updated: Fri, 18-Jan-2019 9:51pm CST
Clear
Clear
 Wind from WNW
Wind: WNW 24 mph , 39 km/h, Gust: 37 mph , 59 km/h
Temperature: 63°F , 17°C
Dew Point: 27°F , -3°C
Humidity: 25%
Barometer: 29.84 inHg , 1010.5 hPa
Clouds: Clear
Visibility: 10 miles , 16 km
2019/01/19 03:51 KSJT 190351Z AUTO 30021G32KT 10SM CLR 17/M03 A2984 RMK AO2 PK WND 31039/0324 SLP094 T01671033
KHOB - Hobbs/Lea Co., New Mexico, USA
Distance from station: WSW 122mi, 196km
Updated: Fri, 18-Jan-2019 10:15pm CST
Partly cloudy
Partly cloudy
 Wind from NNW
Wind: NNW 22 mph , 35 km/h, Gust: 29 mph , 46 km/h
Temperature: 43°F , 6°C
Wind Chill: 34°F , 1°C
Dew Point: 34°F , 1°C
Humidity: 71%
Barometer: 30.04 inHg , 1017.3 hPa
Clouds: Partly cloudy
Visibility: 10 miles , 16 km
Cloud details: Partly cloudy 6500 ft
2019/01/19 04:15 KHOB 190415Z AUTO 34019G25KT 10SM SCT065 06/01 A3004 RMK AO2
 
KCOM - Coleman Muni, Texas, USA
Distance from station: SE 131mi, 212km
Updated: Fri, 18-Jan-2019 10:15pm CST
Partly cloudy
Partly cloudy
 Wind from SW
Wind: SW 13 mph , 20 km/h, Gust: 16 mph , 26 km/h
Temperature: 61°F , 16°C
Dew Point: 32°F , 0°C
Humidity: 34%
Barometer: 29.80 inHg , 1009.1 hPa
Clouds: Partly cloudy
Visibility: 10 miles , 16 km
Cloud details: Partly cloudy 9000 ft
Partly cloudy 12000 ft
2019/01/19 04:15 KCOM 190415Z AUTO 23011G14KT 10SM SCT090 SCT120 16/00 A2980 RMK AO2 T01561003
KBKD - Breckenridge, Texas, USA
Distance from station: E 134mi, 215km
Updated: Fri, 18-Jan-2019 10:15pm CST
Partly cloudy
Partly cloudy
 Wind from WSW
Wind: WSW 10 mph , 17 km/h
Temperature: 61°F , 16°C
Dew Point: 37°F , 3°C
Humidity: 42%
Barometer: 29.71 inHg , 1006.1 hPa
Clouds: Partly cloudy
Visibility: 7 miles , 11 km
Cloud details: Partly cloudy 12000 ft
2019/01/19 04:15 KBKD 190415Z AUTO 24009KT 7SM SCT120 16/03 A2971 RMK AO2 T01610034
 
KF05 - Vernon Wilbarger, Texas, USA
Distance from station: NE 137mi, 220km
Updated: Fri, 18-Jan-2019 10:15pm CST
Overcast
Overcast
 Wind from N
Wind: N 37 mph , 59 km/h, Gust: 43 mph , 69 km/h
Temperature: 46°F , 8°C
Wind Chill: 36°F , 2°C
Dew Point: 39°F , 4°C
Humidity: 76%
Barometer: 29.80 inHg , 1009.1 hPa
Clouds: Overcast
Visibility: 10 miles , 16 km
Cloud details: Overcast 2000 ft
2019/01/19 04:15 KF05 190415Z AUTO 35032G37KT 10SM OVC020 08/04 A2980 RMK AO1 T00840035